Kirwin, Kansas
Current Conditions -  °F | °C
As of 11:53 AM on Sunday 21 Dec 2014 (Local Time) from KHLC Reporting Station
Overcast Overcast  
Wind Chill: 33°   Ceiling: 1000
Heat Index: 42°   Visibility: 7mi
Dew Point: 37°   Wind: 20mph
Humidity: 82%   Direction: 200°SSW
Pressure: 29.73"   Gusts: 25mph
Location:  39.67°N, 99.12°W
Report Text: KHLC 211753Z AUTO 20017G22KT 7SM OVC010 06/03 A2973 RMK AO2 SLP078 T00560028 10056 21006 58024
Loading
Personal Weather Stations






























Interactive Weather Map New forecast layout! Learn more

10-Day Weather Forecast

Advertisements
Track Severe Weather on mobile